Time;durP1;ratioP1;P1;durP2;ratioP2;P2;SDS_P1;SDS_P2;PMS_P1;PMS_P2;Temp;Humidity;BMP_temperature;BMP_pressure;BME280_temperature;BME280_humidity;BME280_pressure;Samples;Min_cycle;Max_cycle;Signal;HPM_P1;HPM_P2
2021/06/23 05:03:48;;;;;;;10.55;3.33;;;;;;;30.49;43.10;100230.47;1825757;77;22690;-67
2021/06/23 05:06:16;;;;;;;8.00;3.55;;;;;;;30.31;43.54;100227.12;1785250;78;21018;-69
2021/06/23 05:08:43;;;;;;;4.35;2.90;;;;;;;30.13;44.23;100231.78;1790177;78;21769;-69
2021/06/23 05:11:10;;;;;;;9.55;3.65;;;;;;;29.94;44.65;100225.07;1799776;78;20937;-72
2021/06/23 05:13:38;;;;;;;9.50;3.72;;;;;;;29.69;45.46;100226.19;1806503;78;20946;-69
2021/06/23 05:16:06;;;;;;;6.00;3.22;;;;;;;29.66;46.00;100225.25;1788355;78;20959;-73
2021/06/23 05:18:34;;;;;;;10.65;3.12;;;;;;;29.77;46.05;100218.77;1788717;78;20918;-72
2021/06/23 05:21:03;;;;;;;5.97;3.00;;;;;;;30.06;45.63;100222.08;1804971;78;22102;-78
2021/06/23 05:23:30;;;;;;;9.23;3.37;;;;;;;30.45;45.37;100211.77;1794145;78;20993;-70
2021/06/23 05:25:57;;;;;;;7.05;3.55;;;;;;;30.95;44.00;100221.44;1788687;78;21028;-71
2021/06/23 05:28:24;;;;;;;12.00;3.70;;;;;;;31.34;43.42;100219.08;1794798;78;20906;-70
2021/06/23 05:30:51;;;;;;;6.20;3.58;;;;;;;31.68;43.24;100212.44;1797916;78;20961;-67
2021/06/23 05:33:18;;;;;;;6.10;3.40;;;;;;;32.05;42.13;100216.05;1788667;78;22188;-69
2021/06/23 05:35:46;;;;;;;8.25;3.27;;;;;;;32.23;41.06;100209.38;1780402;78;21437;-64
2021/06/23 05:38:13;;;;;;;6.65;3.55;;;;;;;32.33;40.90;100220.47;1793140;78;21733;-69
2021/06/23 05:40:41;;;;;;;9.08;3.83;;;;;;;32.44;39.80;100218.88;1779352;78;21447;-70
2021/06/23 05:43:09;;;;;;;12.47;3.55;;;;;;;32.45;39.97;100219.18;1779884;78;20989;-73
2021/06/23 05:45:44;;;;;;;8.15;3.42;;;;;;;32.53;39.99;100219.41;1784543;78;21117;-72
2021/06/23 05:48:15;;;;;;;4.30;3.10;;;;;;;32.55;39.68;100225.41;1789275;78;20962;-71
2021/06/23 05:50:44;;;;;;;5.55;3.10;;;;;;;32.43;40.00;100233.41;1790331;78;21481;-63
2021/06/23 05:53:11;;;;;;;8.23;3.33;;;;;;;32.41;40.45;100238.20;1787702;78;21666;-64
2021/06/23 05:55:40;;;;;;;4.50;3.08;;;;;;;32.53;40.20;100222.11;1792614;78;20961;-68
2021/06/23 05:58:07;;;;;;;10.53;3.52;;;;;;;32.66;40.17;100230.87;1773927;79;21004;-68
2021/06/23 06:00:36;;;;;;;4.65;3.10;;;;;;;32.83;40.19;100224.88;1787732;78;20919;-69
2021/06/23 06:03:07;;;;;;;4.12;3.15;;;;;;;33.07;39.88;100231.52;1774882;80;20880;-68
2021/06/23 06:05:34;;;;;;;8.48;3.27;;;;;;;33.25;39.07;100229.81;1768473;80;21501;-67
2021/06/23 06:08:01;;;;;;;7.95;3.42;;;;;;;33.26;39.28;100228.77;1783185;79;22470;-66
2021/06/23 06:10:29;;;;;;;4.78;3.20;;;;;;;33.28;39.27;100233.44;1792269;79;22325;-67
2021/06/23 06:12:56;;;;;;;7.37;3.33;;;;;;;33.26;39.60;100234.16;1790614;79;20890;-74
2021/06/23 06:15:24;;;;;;;4.92;3.37;;;;;;;33.23;39.67;100234.61;1787618;79;20951;-70
2021/06/23 06:17:52;;;;;;;6.22;3.00;;;;;;;33.23;39.38;100231.91;1783765;79;21044;-77
2021/06/23 06:20:19;;;;;;;4.22;3.02;;;;;;;33.27;38.56;100236.66;1777843;79;20935;-63
2021/06/23 06:22:46;;;;;;;4.87;2.85;;;;;;;33.32;38.93;100236.80;1783897;79;21117;-64
2021/06/23 06:25:20;;;;;;;7.35;2.70;;;;;;;33.51;39.08;100235.40;1786912;80;20962;-69
2021/06/23 06:27:50;;;;;;;4.30;3.08;;;;;;;33.81;38.35;100240.23;1755656;80;20990;-76
2021/06/23 06:30:18;;;;;;;5.90;2.95;;;;;;;34.09;37.95;100245.76;1775857;79;20888;-69
2021/06/23 06:32:45;;;;;;;6.45;2.98;;;;;;;34.29;37.51;100235.13;1774618;80;20895;-73
2021/06/23 06:35:14;;;;;;;6.80;3.00;;;;;;;34.55;37.72;100225.17;1782363;79;21452;-69
2021/06/23 06:37:42;;;;;;;7.58;2.92;;;;;;;34.83;37.30;100219.00;1781719;80;20957;-74
2021/06/23 06:40:13;;;;;;;5.78;2.72;;;;;;;34.99;37.22;100220.95;1765207;80;21611;-68
2021/06/23 06:42:40;;;;;;;4.08;2.90;;;;;;;35.13;36.38;100223.37;1785882;80;20895;-68
2021/06/23 06:45:08;;;;;;;6.03;3.20;;;;;;;35.01;36.58;100219.36;1778780;80;20978;-68
2021/06/23 06:47:35;;;;;;;3.52;2.77;;;;;;;34.92;37.01;100227.04;1775294;79;21054;-65
2021/06/23 06:50:05;;;;;;;7.78;3.40;;;;;;;34.89;37.19;100226.16;1785980;79;20939;-66
2021/06/23 06:52:32;;;;;;;4.47;3.02;;;;;;;34.99;37.41;100229.61;1785054;80;20950;-65
2021/06/23 06:54:59;;;;;;;6.83;3.05;;;;;;;35.09;36.72;100225.22;1785590;79;20867;-72
2021/06/23 06:57:27;;;;;;;5.15;2.90;;;;;;;35.07;36.99;100225.16;1788003;80;20943;-66
2021/06/23 06:59:54;;;;;;;5.67;2.80;;;;;;;35.12;37.03;100223.09;1786957;80;21119;-65
2021/06/23 07:02:21;;;;;;;6.10;2.90;;;;;;;35.20;37.03;100211.31;1786339;79;20991;-71
2021/06/23 07:04:49;;;;;;;5.50;3.50;;;;;;;35.21;36.54;100209.42;1780625;79;20899;-71
2021/06/23 07:07:16;;;;;;;4.78;2.80;;;;;;;35.10;36.30;100213.86;1783895;79;20896;-63
2021/06/23 07:09:43;;;;;;;5.08;2.90;;;;;;;35.07;36.70;100211.63;1784247;79;21487;-70
2021/06/23 07:12:12;;;;;;;5.17;2.80;;;;;;;35.18;36.33;100211.30;1777749;79;20943;-69
2021/06/23 07:14:39;;;;;;;5.05;2.67;;;;;;;35.26;36.05;100212.23;1787980;79;20912;-66
2021/06/23 07:17:06;;;;;;;6.97;3.00;;;;;;;35.32;36.37;100208.05;1775734;79;20844;-66
2021/06/23 07:19:34;;;;;;;4.72;2.90;;;;;;;35.32;36.60;100213.47;1779846;80;20997;-65
2021/06/23 07:22:02;;;;;;;4.65;2.90;;;;;;;35.35;36.52;100212.16;1769027;80;20982;-64
2021/06/23 07:24:29;;;;;;;7.12;2.98;;;;;;;35.43;36.58;100205.81;1774263;79;22079;-66
2021/06/23 07:26:59;;;;;;;4.72;2.92;;;;;;;35.50;36.69;100201.59;1774476;79;21017;-65
2021/06/23 07:29:27;;;;;;;4.95;3.15;;;;;;;35.60;36.44;100204.98;1767495;79;21037;-65
2021/06/23 07:37:08;;;;;;;7.60;3.45;;;;;;;35.56;36.59;100199.27;1778263;80;21232;-70
2021/06/23 07:39:34;;;;;;;7.37;3.55;;;;;;;35.62;36.59;100200.14;1743687;82;20970;-70
2021/06/23 07:42:04;;;;;;;7.08;2.87;;;;;;;35.68;35.74;100201.87;1732421;82;21026;-66
2021/06/23 07:44:34;;;;;;;10.85;3.83;;;;;;;35.70;35.97;100205.16;1734109;82;20987;-65
2021/06/23 07:47:06;;;;;;;7.28;3.62;;;;;;;35.75;36.02;100202.00;1776059;79;20955;-70
2021/06/23 07:49:31;;;;;;;6.67;2.83;;;;;;;35.77;35.88;100196.33;1764861;79;21264;-77
2021/06/23 07:52:03;;;;;;;4.60;3.02;;;;;;;35.79;36.13;100197.47;1767374;79;20922;-68
2021/06/23 08:10:49;;;;;;;5.25;2.47;;;;;;;36.16;34.35;100194.49;1785055;80;20903;-72
2021/06/23 08:13:16;;;;;;;7.83;2.90;;;;;;;36.15;34.17;100192.84;1778740;79;21009;-65
2021/06/23 08:15:47;;;;;;;5.75;2.95;;;;;;;36.18;34.13;100199.66;1769668;80;21458;-64
2021/06/23 08:18:15;;;;;;;5.53;3.15;;;;;;;36.10;34.19;100198.20;1781260;79;21058;-76
2021/06/23 08:20:44;;;;;;;6.53;3.02;;;;;;;35.99;34.79;100188.30;1786863;80;21001;-69
2021/06/23 08:23:11;;;;;;;10.35;3.50;;;;;;;35.92;34.12;100178.98;1793272;79;21029;-67
2021/06/23 08:25:38;;;;;;;8.68;3.25;;;;;;;35.76;34.98;100187.38;1772184;79;21767;-71
2021/06/23 08:28:06;;;;;;;11.65;3.17;;;;;;;35.64;35.24;100188.00;1772122;80;21867;-69
2021/06/23 08:30:33;;;;;;;15.30;3.37;;;;;;;35.54;34.82;100186.50;1776702;80;20941;-72
2021/06/23 08:33:01;;;;;;;6.12;2.98;;;;;;;35.46;35.23;100188.26;1773402;80;21011;-73
2021/06/23 08:35:28;;;;;;;5.85;2.92;;;;;;;35.38;35.43;100195.42;1779028;79;21021;-69
2021/06/23 08:37:55;;;;;;;5.08;2.60;;;;;;;35.30;35.10;100191.23;1775304;80;21025;-64
2021/06/23 08:40:23;;;;;;;7.17;2.65;;;;;;;35.36;34.64;100190.25;1782672;78;21188;-74
2021/06/23 08:42:50;;;;;;;5.40;2.90;;;;;;;35.37;34.01;100191.08;1781372;79;20939;-66
2021/06/23 08:45:17;;;;;;;7.95;2.92;;;;;;;35.33;34.44;100199.39;1781660;80;21000;-66
2021/06/23 08:47:47;;;;;;;6.45;2.80;;;;;;;35.26;34.36;100191.39;1775369;79;20968;-77
2021/06/23 08:50:17;;;;;;;13.15;2.75;;;;;;;35.22;34.59;100200.24;1778721;79;20899;-74
2021/06/23 08:52:44;;;;;;;2.92;2.42;;;;;;;35.17;34.99;100190.17;1770689;79;21066;-72
2021/06/23 08:55:12;;;;;;;5.90;2.87;;;;;;;35.12;35.51;100186.02;1782229;79;20962;-71
2021/06/23 08:57:40;;;;;;;2.80;2.55;;;;;;;35.04;36.30;100191.28;1762273;80;20935;-77
2021/06/23 09:00:08;;;;;;;7.33;2.90;;;;;;;34.98;35.03;100197.66;1780656;79;21394;-65
2021/06/23 09:02:35;;;;;;;4.78;3.02;;;;;;;34.84;35.58;100196.83;1786344;79;21051;-68
2021/06/23 09:05:08;;;;;;;7.12;2.98;;;;;;;34.74;35.25;100200.15;1774144;79;21140;-68
2021/06/23 09:07:53;;;;;;;6.37;3.77;;;;;;;34.65;34.75;100201.05;1786421;79;20966;-65
2021/06/23 09:10:33;;;;;;;7.30;4.58;;;;;;;34.55;35.11;100207.60;1769677;79;21005;-63
2021/06/23 09:13:11;;;;;;;6.67;4.28;;;;;;;34.46;35.64;100204.97;1775039;79;21006;-69
2021/06/23 09:16:01;;;;;;;6.45;3.72;;;;;;;34.31;36.31;100207.37;1778611;80;20962;-71
2021/06/23 09:18:35;;;;;;;10.30;2.80;;;;;;;34.25;36.70;100215.03;1781373;79;21126;-63
2021/06/23 09:21:19;;;;;;;6.35;2.92;;;;;;;34.25;36.81;100206.92;1785831;79;20919;-67
2021/06/23 09:23:56;;;;;;;5.17;3.60;;;;;;;34.30;36.39;100203.02;1784427;79;20982;-64
2021/06/23 09:26:27;;;;;;;6.22;4.05;;;;;;;34.29;36.05;100199.98;1770397;79;21010;-62
2021/06/23 09:29:16;;;;;;;7.53;3.75;;;;;;;34.26;36.96;100205.87;1769253;79;21331;-72
2021/06/23 09:32:00;;;;;;;11.48;3.55;;;;;;;34.33;37.50;100208.77;1772950;79;21966;-71
2021/06/23 09:34:36;;;;;;;5.20;3.30;;;;;;;34.45;36.91;100191.16;1776680;80;20896;-65
2021/06/23 09:37:31;;;;;;;4.87;2.62;;;;;;;34.58;35.59;100192.78;1774820;80;20977;-69
2021/06/23 09:40:16;;;;;;;5.97;2.80;;;;;;;34.59;34.83;100199.83;1782330;79;21013;-75
2021/06/23 09:43:00;;;;;;;5.75;2.75;;;;;;;34.56;35.64;100200.31;1775210;79;20951;-65
2021/06/23 09:45:24;;;;;;;4.37;2.60;;;;;;;34.56;36.69;100197.60;1777646;79;21058;-66
2021/06/23 09:48:01;;;;;;;10.78;3.30;;;;;;;34.55;36.72;100195.95;1773742;80;21031;-70
2021/06/23 09:50:30;;;;;;;10.63;2.95;;;;;;;34.52;35.80;100187.80;1770108;80;21529;-69
2021/06/23 09:53:04;;;;;;;6.83;2.90;;;;;;;34.49;36.19;100196.91;1772034;79;20974;-68
2021/06/23 09:55:40;;;;;;;5.65;2.90;;;;;;;34.52;33.69;100195.08;1776954;80;20974;-66
2021/06/23 09:58:21;;;;;;;5.58;2.75;;;;;;;34.55;34.38;100200.02;1784627;79;21134;-67
2021/06/23 10:01:10;;;;;;;7.45;2.72;;;;;;;34.59;33.41;100225.00;1773939;79;20919;-66
2021/06/23 10:04:01;;;;;;;4.65;2.60;;;;;;;34.60;32.68;100208.23;1776984;79;21460;-71
2021/06/23 10:06:37;;;;;;;7.03;2.67;;;;;;;34.56;33.17;100201.12;1792744;80;21488;-68
2021/06/23 10:09:24;;;;;;;12.07;3.35;;;;;;;34.53;33.87;100206.19;1795194;80;20930;-69
2021/06/23 10:12:06;;;;;;;5.62;3.20;;;;;;;34.51;33.30;100224.53;1796386;80;21774;-69
2021/06/23 10:14:45;;;;;;;4.10;3.10;;;;;;;34.39;33.70;100217.82;1796081;79;20970;-67
2021/06/23 10:17:13;;;;;;;6.22;3.05;;;;;;;34.26;34.49;100208.04;1795173;80;21556;-69
2021/06/23 10:19:42;;;;;;;5.55;3.08;;;;;;;34.19;34.68;100209.22;1789195;78;21011;-66
2021/06/23 10:22:10;;;;;;;7.17;2.87;;;;;;;34.11;35.34;100209.86;1793638;79;20901;-67
2021/06/23 10:24:39;;;;;;;5.22;3.12;;;;;;;34.09;35.17;100205.75;1796080;79;21135;-66
2021/06/23 10:27:10;;;;;;;4.03;3.02;;;;;;;34.05;35.29;100205.92;1792567;79;20977;-65
2021/06/23 10:29:37;;;;;;;5.85;2.95;;;;;;;34.07;34.98;100211.39;1795075;79;20964;-64
2021/06/23 10:32:06;;;;;;;7.20;2.90;;;;;;;34.12;35.06;100201.23;1796181;79;20887;-66
2021/06/23 10:34:33;;;;;;;4.87;3.10;;;;;;;34.16;34.96;100204.28;1797832;78;20894;-65
2021/06/23 10:37:01;;;;;;;7.40;3.17;;;;;;;34.21;34.85;100200.34;1790771;78;21919;-65
2021/06/23 10:39:33;;;;;;;10.68;3.08;;;;;;;34.24;33.72;100207.98;1795507;79;20879;-68
2021/06/23 10:42:04;;;;;;;6.75;3.15;;;;;;;34.24;32.67;100223.67;1784592;79;21508;-66
2021/06/23 10:44:47;;;;;;;6.72;2.83;;;;;;;34.22;32.92;100204.16;1795017;79;21012;-67
2021/06/23 10:47:38;;;;;;;13.00;2.98;;;;;;;34.26;32.63;100201.81;1784087;79;21074;-66
2021/06/23 10:50:30;;;;;;;7.62;3.70;;;;;;;34.23;32.64;100208.52;1792127;79;21918;-65
2021/06/23 10:52:57;;;;;;;6.37;3.47;;;;;;;34.22;33.27;100204.16;1795229;79;20923;-65
2021/06/23 10:55:30;;;;;;;7.85;3.20;;;;;;;34.22;33.28;100203.34;1796191;79;20979;-65
2021/06/23 10:58:09;;;;;;;8.93;2.95;;;;;;;34.23;33.56;100201.75;1794818;80;20919;-66
2021/06/23 11:00:36;;;;;;;5.92;3.17;;;;;;;34.28;33.36;100203.75;1788464;80;20958;-64
2021/06/23 11:03:08;;;;;;;7.00;2.85;;;;;;;34.32;33.44;100199.55;1785649;79;21147;-65
2021/06/23 11:05:49;;;;;;;8.23;3.00;;;;;;;34.33;34.01;100202.55;1774221;79;21102;-65
2021/06/23 11:08:29;;;;;;;8.25;2.80;;;;;;;34.33;34.26;100194.44;1778577;80;20922;-65
2021/06/23 11:11:02;;;;;;;8.95;2.87;;;;;;;34.32;33.09;100203.60;1776337;80;20902;-65
2021/06/23 11:13:34;;;;;;;10.95;3.15;;;;;;;34.29;32.41;100202.16;1774551;79;21001;-66
2021/06/23 11:16:04;;;;;;;8.28;3.10;;;;;;;34.28;32.50;100210.51;1778571;80;20934;-66
2021/06/23 11:18:37;;;;;;;5.25;2.87;;;;;;;34.27;32.76;100204.81;1780340;79;21019;-66
2021/06/23 11:21:18;;;;;;;8.83;2.80;;;;;;;34.26;33.24;100203.98;1783705;79;20891;-64
2021/06/23 11:23:59;;;;;;;7.28;2.72;;;;;;;34.26;33.64;100201.28;1778519;79;20934;-65
2021/06/23 11:26:33;;;;;;;12.18;4.40;;;;;;;34.31;34.61;100202.78;1784451;79;20914;-66
2021/06/23 11:29:15;;;;;;;11.60;4.00;;;;;;;34.37;34.59;100202.36;1785122;79;21099;-64
2021/06/23 11:31:49;;;;;;;4.87;3.37;;;;;;;34.41;33.58;100209.73;1781771;79;20990;-67
2021/06/23 11:34:41;;;;;;;8.95;4.85;;;;;;;34.36;33.74;100196.66;1781713;79;20990;-65
2021/06/23 11:37:15;;;;;;;9.80;3.17;;;;;;;34.27;34.21;100198.88;1784815;79;20970;-65
2021/06/23 11:39:43;;;;;;;4.53;2.95;;;;;;;34.22;34.40;100194.70;1781813;79;21026;-66
2021/06/23 11:42:12;;;;;;;6.60;3.87;;;;;;;34.16;34.67;100198.34;1780051;79;21101;-67
2021/06/23 11:44:39;;;;;;;9.23;3.85;;;;;;;34.10;35.19;100195.23;1787443;79;20978;-66
2021/06/23 11:47:08;;;;;;;8.80;3.40;;;;;;;34.05;35.51;100195.11;1781778;79;20921;-68
2021/06/23 11:49:36;;;;;;;5.30;3.20;;;;;;;34.03;35.94;100194.00;1789760;79;20973;-65
2021/06/23 11:52:06;;;;;;;7.90;3.40;;;;;;;34.02;36.16;100204.52;1787426;79;20962;-64
2021/06/23 11:54:33;;;;;;;7.12;2.65;;;;;;;33.96;35.97;100200.08;1785212;79;21110;-63
2021/06/23 11:57:01;;;;;;;3.75;2.80;;;;;;;33.93;36.17;100197.02;1787333;79;20946;-64
2021/06/23 11:59:28;;;;;;;8.50;3.12;;;;;;;33.89;36.37;100198.55;1786598;79;20967;-62
2021/06/23 12:01:58;;;;;;;6.58;2.70;;;;;;;33.87;36.57;100208.23;1789742;79;20894;-62
2021/06/23 12:04:28;;;;;;;5.92;3.37;;;;;;;33.88;36.78;100203.66;1779871;79;20986;-65
2021/06/23 12:06:55;;;;;;;4.12;3.30;;;;;;;33.91;36.92;100200.48;1774704;80;21175;-66
2021/06/23 12:09:23;;;;;;;6.08;3.15;;;;;;;33.97;36.76;100204.95;1758545;80;21550;-62
2021/06/23 12:11:50;;;;;;;7.90;3.58;;;;;;;34.01;36.74;100201.52;1775828;79;20974;-69
2021/06/23 12:14:17;;;;;;;11.53;3.50;;;;;;;34.08;35.44;100199.52;1772882;80;21587;-64
2021/06/23 12:16:44;;;;;;;8.03;3.62;;;;;;;34.09;34.71;100201.17;1777423;79;21457;-65
2021/06/23 12:19:13;;;;;;;14.87;3.87;;;;;;;34.08;35.17;100213.03;1772745;80;21091;-69
2021/06/23 12:21:40;;;;;;;13.58;4.25;;;;;;;34.07;35.29;100203.28;1766694;80;20906;-63
2021/06/23 12:24:08;;;;;;;10.85;3.67;;;;;;;34.07;34.19;100208.69;1767094;79;21077;-65
2021/06/23 12:26:35;;;;;;;11.20;3.58;;;;;;;34.06;33.99;100204.87;1782466;79;21051;-62
2021/06/23 12:29:03;;;;;;;7.70;3.25;;;;;;;34.01;34.39;100206.10;1774179;80;21022;-64
2021/06/23 12:31:30;;;;;;;20.55;4.60;;;;;;;33.95;35.19;100205.19;1775637;80;21205;-64
2021/06/23 12:33:58;;;;;;;21.70;4.97;;;;;;;33.92;35.44;100207.53;1776125;79;21024;-67
2021/06/23 12:36:25;;;;;;;24.70;5.97;;;;;;;33.92;34.68;100215.64;1774041;79;20899;-65
2021/06/23 12:38:54;;;;;;;17.87;5.12;;;;;;;33.92;34.49;100216.98;1783769;79;21017;-66
2021/06/23 12:41:21;;;;;;;22.65;5.78;;;;;;;33.93;34.20;100215.94;1785928;79;21452;-69
2021/06/23 12:43:49;;;;;;;21.30;6.08;;;;;;;33.94;34.73;100208.95;1787504;79;21919;-69
2021/06/23 12:46:16;;;;;;;24.72;6.10;;;;;;;33.97;35.10;100213.88;1775721;79;21422;-68
2021/06/23 12:48:43;;;;;;;22.87;5.67;;;;;;;34.02;34.90;100216.67;1784739;79;21604;-64
2021/06/23 12:51:11;;;;;;;30.17;6.30;;;;;;;34.04;34.26;100213.73;1779192;79;20898;-65
2021/06/23 12:53:39;;;;;;;29.72;6.83;;;;;;;34.03;34.82;100210.21;1779886;79;21063;-61
2021/06/23 12:56:05;;;;;;;38.13;5.92;;;;;;;34.04;35.11;100214.56;1784102;79;21120;-61
2021/06/23 12:58:33;;;;;;;45.00;9.68;;;;;;;34.08;35.15;100221.67;1792835;79;21460;-62
2021/06/23 13:01:02;;;;;;;46.60;11.40;;;;;;;34.09;33.53;100224.14;1791377;79;22406;-68
2021/06/23 13:03:29;;;;;;;51.70;10.58;;;;;;;34.09;31.92;100220.09;1781880;79;20904;-61
2021/06/23 13:06:00;;;;;;;60.20;10.08;;;;;;;34.06;32.21;100221.91;1789740;78;21464;-64
2021/06/23 13:08:25;;;;;;;59.83;11.97;;;;;;;34.03;32.01;100215.62;1787911;79;21066;-69
2021/06/23 13:10:53;;;;;;;50.67;9.85;;;;;;;34.01;32.02;100219.08;1790305;79;21018;-67
2021/06/23 13:13:20;;;;;;;46.33;9.55;;;;;;;33.98;32.84;100210.66;1774512;79;20913;-65
2021/06/23 13:15:49;;;;;;;58.75;11.10;;;;;;;33.97;33.19;100215.77;1787297;80;20981;-64
2021/06/23 13:18:19;;;;;;;56.95;10.78;;;;;;;33.99;33.78;100214.44;1774994;80;21483;-66
2021/06/23 13:20:47;;;;;;;51.20;9.35;;;;;;;34.02;33.83;100215.85;1776678;79;21141;-64
2021/06/23 13:23:15;;;;;;;52.85;10.88;;;;;;;34.05;34.32;100217.56;1775416;79;21662;-62
2021/06/23 13:25:44;;;;;;;55.92;12.00;;;;;;;34.12;33.73;100216.91;1791931;79;20994;-64
2021/06/23 13:28:12;;;;;;;68.05;12.98;;;;;;;34.19;32.83;100219.50;1779820;79;20935;-62
2021/06/23 13:30:39;;;;;;;63.78;13.00;;;;;;;34.25;30.62;100216.38;1780443;79;20919;-67
2021/06/23 13:33:06;;;;;;;65.32;13.43;;;;;;;34.28;30.67;100219.44;1785801;79;21106;-65
2021/06/23 13:35:33;;;;;;;71.10;13.00;;;;;;;34.29;30.76;100215.68;1790372;79;20955;-64
2021/06/23 13:38:01;;;;;;;66.00;11.95;;;;;;;34.31;30.95;100215.47;1779688;79;21017;-62
2021/06/23 13:40:28;;;;;;;54.53;12.03;;;;;;;34.33;31.33;100224.17;1790160;79;20991;-66
2021/06/23 13:42:55;;;;;;;63.78;12.88;;;;;;;34.35;31.95;100222.05;1787233;79;20985;-62
2021/06/23 13:45:23;;;;;;;63.58;11.83;;;;;;;34.40;32.06;100218.91;1789802;79;21471;-65
2021/06/23 13:47:50;;;;;;;59.00;10.78;;;;;;;34.44;32.17;100224.13;1777583;80;20895;-64
2021/06/23 13:50:17;;;;;;;56.35;10.35;;;;;;;34.43;32.17;100231.13;1789129;79;20891;-61
2021/06/23 13:52:47;;;;;;;49.65;10.35;;;;;;;34.40;32.47;100226.19;1779909;79;20942;-62
2021/06/23 13:55:26;;;;;;;50.90;9.95;;;;;;;34.34;33.10;100230.70;1764865;79;20951;-69
2021/06/23 13:57:58;;;;;;;44.85;9.83;;;;;;;34.32;33.73;100227.41;1774972;79;21196;-65
2021/06/23 14:00:31;;;;;;;50.33;10.72;;;;;;;34.29;33.99;100223.79;1780877;80;21449;-65
2021/06/23 14:02:58;;;;;;;47.83;10.35;;;;;;;34.26;33.80;100225.61;1771696;79;20978;-65
